sensor_id;sensor_type;location;lat;lon;timestamp;P1;P2;P0
69746;PMS7003;57018;50.278;19.134;2023-02-28T00:00:40;18.00;18.00;14.00
69746;PMS7003;57018;50.278;19.134;2023-02-28T00:53:22;25.50;25.50;17.00
69746;PMS7003;57018;50.278;19.134;2023-02-28T01:25:31;24.50;23.00;15.00
69746;PMS7003;57018;50.278;19.134;2023-02-28T01:28:06;27.00;25.00;17.00
69746;PMS7003;57018;50.278;19.134;2023-02-28T01:33:07;27.50;22.00;14.50
69746;PMS7003;57018;50.278;19.134;2023-02-28T01:35:38;21.00;16.00;12.00
69746;PMS7003;57018;50.278;19.134;2023-02-28T01:38:09;19.00;18.00;12.00
69746;PMS7003;57018;50.278;19.134;2023-02-28T01:40:39;16.50;14.00;8.50
69746;PMS7003;57018;50.278;19.134;2023-02-28T02:06:55;27.50;27.50;22.50
69746;PMS7003;57018;50.278;19.134;2023-02-28T02:15:03;27.00;26.00;17.00
69746;PMS7003;57018;50.278;19.134;2023-02-28T02:17:51;45.00;33.00;19.00
69746;PMS7003;57018;50.278;19.134;2023-02-28T02:26:38;35.00;29.00;19.00
69746;PMS7003;57018;50.278;19.134;2023-02-28T02:29:39;33.00;30.00;20.50
69746;PMS7003;57018;50.278;19.134;2023-02-28T02:32:37;40.50;34.50;19.00
69746;PMS7003;57018;50.278;19.134;2023-02-28T02:35:25;36.50;31.00;21.00
69746;PMS7003;57018;50.278;19.134;2023-02-28T02:38:00;28.00;24.00;14.00
69746;PMS7003;57018;50.278;19.134;2023-02-28T02:40:37;40.00;33.00;25.00
69746;PMS7003;57018;50.278;19.134;2023-02-28T02:43:15;31.00;30.00;19.00
69746;PMS7003;57018;50.278;19.134;2023-02-28T02:45:48;39.50;33.00;21.00
69746;PMS7003;57018;50.278;19.134;2023-02-28T02:48:23;34.67;28.67;24.00
69746;PMS7003;57018;50.278;19.134;2023-02-28T02:50:57;35.50;33.00;22.00
69746;PMS7003;57018;50.278;19.134;2023-02-28T02:53:32;30.00;27.50;18.50
69746;PMS7003;57018;50.278;19.134;2023-02-28T02:56:06;34.00;32.00;20.00
69746;PMS7003;57018;50.278;19.134;2023-02-28T03:01:10;41.50;35.00;22.00
69746;PMS7003;57018;50.278;19.134;2023-02-28T03:03:43;36.67;34.00;24.33
69746;PMS7003;57018;50.278;19.134;2023-02-28T03:06:14;33.00;29.00;21.50
69746;PMS7003;57018;50.278;19.134;2023-02-28T03:08:44;33.00;31.00;21.00
69746;PMS7003;57018;50.278;19.134;2023-02-28T03:11:14;38.00;33.50;24.00
69746;PMS7003;57018;50.278;19.134;2023-02-28T03:13:54;41.00;36.50;25.00
69746;PMS7003;57018;50.278;19.134;2023-02-28T03:16:58;31.00;30.00;22.00
69746;PMS7003;57018;50.278;19.134;2023-02-28T03:19:37;46.50;31.50;23.00
69746;PMS7003;57018;50.278;19.134;2023-02-28T03:22:31;27.00;24.00;16.00
69746;PMS7003;57018;50.278;19.134;2023-02-28T03:27:58;25.00;25.00;18.00
69746;PMS7003;57018;50.278;19.134;2023-02-28T03:30:35;23.00;22.00;16.00
69746;PMS7003;57018;50.278;19.134;2023-02-28T03:33:10;25.00;25.00;16.00
69746;PMS7003;57018;50.278;19.134;2023-02-28T03:35:47;23.67;20.33;15.00
69746;PMS7003;57018;50.278;19.134;2023-02-28T03:38:22;22.00;22.00;18.00
69746;PMS7003;57018;50.278;19.134;2023-02-28T03:40:57;28.00;27.00;18.00
69746;PMS7003;57018;50.278;19.134;2023-02-28T03:43:33;33.00;29.00;19.00
69746;PMS7003;57018;50.278;19.134;2023-02-28T03:46:21;28.00;24.00;16.50
69746;PMS7003;57018;50.278;19.134;2023-02-28T03:48:53;39.00;31.00;24.00
69746;PMS7003;57018;50.278;19.134;2023-02-28T03:51:29;32.00;30.50;22.50
69746;PMS7003;57018;50.278;19.134;2023-02-28T03:54:02;33.50;30.00;21.00
69746;PMS7003;57018;50.278;19.134;2023-02-28T03:56:37;36.50;32.00;24.50
69746;PMS7003;57018;50.278;19.134;2023-02-28T03:59:12;37.00;36.00;26.00
69746;PMS7003;57018;50.278;19.134;2023-02-28T04:01:48;30.67;27.33;15.67
69746;PMS7003;57018;50.278;19.134;2023-02-28T04:04:18;35.00;30.50;21.00
69746;PMS7003;57018;50.278;19.134;2023-02-28T04:06:53;31.00;28.00;21.00
69746;PMS7003;57018;50.278;19.134;2023-02-28T04:09:31;23.00;23.00;15.00
69746;PMS7003;57018;50.278;19.134;2023-02-28T04:12:02;35.50;28.50;20.00
69746;PMS7003;57018;50.278;19.134;2023-02-28T04:14:33;23.50;23.00;15.50
69746;PMS7003;57018;50.278;19.134;2023-02-28T04:17:03;34.00;30.00;19.00
69746;PMS7003;57018;50.278;19.134;2023-02-28T04:19:33;31.00;27.67;21.00
69746;PMS7003;57018;50.278;19.134;2023-02-28T04:22:03;29.00;23.00;18.00
69746;PMS7003;57018;50.278;19.134;2023-02-28T04:24:32;36.00;33.00;21.50
69746;PMS7003;57018;50.278;19.134;2023-02-28T04:27:02;39.00;36.00;27.00
69746;PMS7003;57018;50.278;19.134;2023-02-28T04:29:32;46.00;42.00;28.00
69746;PMS7003;57018;50.278;19.134;2023-02-28T04:32:02;39.00;37.00;23.00
69746;PMS7003;57018;50.278;19.134;2023-02-28T04:34:33;39.50;36.00;25.00
69746;PMS7003;57018;50.278;19.134;2023-02-28T04:37:03;48.00;40.00;25.00
69746;PMS7003;57018;50.278;19.134;2023-02-28T04:39:34;38.00;30.50;18.50
69746;PMS7003;57018;50.278;19.134;2023-02-28T04:42:04;28.00;27.50;17.00
69746;PMS7003;57018;50.278;19.134;2023-02-28T04:44:34;31.00;28.00;21.00
69746;PMS7003;57018;50.278;19.134;2023-02-28T04:47:04;28.00;27.00;21.00
69746;PMS7003;57018;50.278;19.134;2023-02-28T04:49:34;52.00;42.00;27.00
69746;PMS7003;57018;50.278;19.134;2023-02-28T04:52:04;42.00;36.00;24.00
69746;PMS7003;57018;50.278;19.134;2023-02-28T04:54:34;46.00;34.00;22.00
69746;PMS7003;57018;50.278;19.134;2023-02-28T04:57:06;24.50;15.50;6.00
69746;PMS7003;57018;50.278;19.134;2023-02-28T04:59:35;36.50;23.50;15.50
69746;PMS7003;57018;50.278;19.134;2023-02-28T05:02:05;36.00;34.00;22.00
69746;PMS7003;57018;50.278;19.134;2023-02-28T05:04:35;53.00;48.00;30.00
69746;PMS7003;57018;50.278;19.134;2023-02-28T05:07:05;42.50;38.00;27.00
69746;PMS7003;57018;50.278;19.134;2023-02-28T05:09:35;41.00;38.50;27.50
69746;PMS7003;57018;50.278;19.134;2023-02-28T05:12:05;51.67;43.00;26.67
69746;PMS7003;57018;50.278;19.134;2023-02-28T05:14:36;42.50;42.00;27.50
69746;PMS7003;57018;50.278;19.134;2023-02-28T05:17:06;49.50;41.50;29.00
69746;PMS7003;57018;50.278;19.134;2023-02-28T05:19:36;45.00;39.00;25.00
69746;PMS7003;57018;50.278;19.134;2023-02-28T05:22:11;41.33;38.33;22.00
69746;PMS7003;57018;50.278;19.134;2023-02-28T05:24:43;51.50;47.00;30.00
69746;PMS7003;57018;50.278;19.134;2023-02-28T05:27:13;53.00;42.00;30.00
69746;PMS7003;57018;50.278;19.134;2023-02-28T05:29:43;44.50;44.00;29.00
69746;PMS7003;57018;50.278;19.134;2023-02-28T05:32:13;54.00;45.50;30.00
69746;PMS7003;57018;50.278;19.134;2023-02-28T05:34:42;54.00;45.00;30.00
69746;PMS7003;57018;50.278;19.134;2023-02-28T05:37:13;65.00;53.00;33.50
69746;PMS7003;57018;50.278;19.134;2023-02-28T05:39:43;48.50;42.00;24.50
69746;PMS7003;57018;50.278;19.134;2023-02-28T05:42:13;72.50;56.00;36.50
69746;PMS7003;57018;50.278;19.134;2023-02-28T05:44:43;76.00;60.00;41.00
69746;PMS7003;57018;50.278;19.134;2023-02-28T05:47:14;75.00;60.00;39.00
69746;PMS7003;57018;50.278;19.134;2023-02-28T05:49:44;65.50;53.00;34.00
69746;PMS7003;57018;50.278;19.134;2023-02-28T05:52:14;67.00;55.00;38.00
69746;PMS7003;57018;50.278;19.134;2023-02-28T05:54:43;57.00;49.00;30.00
69746;PMS7003;57018;50.278;19.134;2023-02-28T05:57:13;63.00;52.00;34.00
69746;PMS7003;57018;50.278;19.134;2023-02-28T06:02:13;51.50;42.50;30.00
69746;PMS7003;57018;50.278;19.134;2023-02-28T06:04:45;63.00;49.00;33.00
69746;PMS7003;57018;50.278;19.134;2023-02-28T06:07:15;60.00;49.00;33.00
69746;PMS7003;57018;50.278;19.134;2023-02-28T06:09:45;64.00;52.00;33.00
69746;PMS7003;57018;50.278;19.134;2023-02-28T06:12:15;51.00;48.00;31.00
69746;PMS7003;57018;50.278;19.134;2023-02-28T06:14:44;66.00;55.00;36.00
69746;PMS7003;57018;50.278;19.134;2023-02-28T06:17:14;69.00;53.50;35.00
69746;PMS7003;57018;50.278;19.134;2023-02-28T06:19:46;80.33;62.33;41.33
69746;PMS7003;57018;50.278;19.134;2023-02-28T06:22:16;82.00;63.00;42.00
69746;PMS7003;57018;50.278;19.134;2023-02-28T06:24:46;72.00;57.00;39.00
69746;PMS7003;57018;50.278;19.134;2023-02-28T06:27:16;42.00;31.50;9.50
69746;PMS7003;57018;50.278;19.134;2023-02-28T06:29:47;72.00;60.00;40.00
69746;PMS7003;57018;50.278;19.134;2023-02-28T06:32:17;73.00;60.00;40.00
69746;PMS7003;57018;50.278;19.134;2023-02-28T06:34:47;75.00;60.00;40.00
69746;PMS7003;57018;50.278;19.134;2023-02-28T06:37:18;61.00;48.00;30.00
69746;PMS7003;57018;50.278;19.134;2023-02-28T06:39:48;64.00;49.00;32.00
69746;PMS7003;57018;50.278;19.134;2023-02-28T06:42:17;66.00;55.00;39.00
69746;PMS7003;57018;50.278;19.134;2023-02-28T06:44:48;69.00;55.50;33.50
69746;PMS7003;57018;50.278;19.134;2023-02-28T06:52:33;55.00;48.00;30.00
69746;PMS7003;57018;50.278;19.134;2023-02-28T06:55:05;66.00;56.50;35.50
69746;PMS7003;57018;50.278;19.134;2023-02-28T06:57:38;57.00;46.00;27.00
69746;PMS7003;57018;50.278;19.134;2023-02-28T07:00:09;63.00;48.00;34.00
69746;PMS7003;57018;50.278;19.134;2023-02-28T07:02:40;60.50;48.00;30.50
69746;PMS7003;57018;50.278;19.134;2023-02-28T07:05:10;51.00;45.00;30.00
69746;PMS7003;57018;50.278;19.134;2023-02-28T07:07:41;33.50;32.00;20.50
69746;PMS7003;57018;50.278;19.134;2023-02-28T07:12:43;64.00;46.00;29.00
69746;PMS7003;57018;50.278;19.134;2023-02-28T07:15:13;56.00;47.00;31.00
69746;PMS7003;57018;50.278;19.134;2023-02-28T07:17:43;46.00;39.00;24.00
69746;PMS7003;57018;50.278;19.134;2023-02-28T07:20:13;38.00;37.00;25.00
69746;PMS7003;57018;50.278;19.134;2023-02-28T07:22:43;34.00;33.00;16.00
69746;PMS7003;57018;50.278;19.134;2023-02-28T07:25:14;46.00;38.50;27.00
69746;PMS7003;57018;50.278;19.134;2023-02-28T07:27:44;36.00;29.00;22.00
69746;PMS7003;57018;50.278;19.134;2023-02-28T07:30:14;55.00;43.00;27.00
69746;PMS7003;57018;50.278;19.134;2023-02-28T07:32:45;35.50;32.50;20.50
69746;PMS7003;57018;50.278;19.134;2023-02-28T07:35:15;9.50;9.50;0.00
69746;PMS7003;57018;50.278;19.134;2023-02-28T07:37:46;37.00;37.00;24.00
69746;PMS7003;57018;50.278;19.134;2023-02-28T07:40:24;39.00;34.00;21.00
69746;PMS7003;57018;50.278;19.134;2023-02-28T07:42:54;38.00;33.00;19.00
69746;PMS7003;57018;50.278;19.134;2023-02-28T07:45:24;36.00;36.00;20.00
69746;PMS7003;57018;50.278;19.134;2023-02-28T07:47:55;31.00;26.00;15.00
69746;PMS7003;57018;50.278;19.134;2023-02-28T07:50:25;33.50;32.50;18.00
69746;PMS7003;57018;50.278;19.134;2023-02-28T07:53:01;31.50;25.00;14.50
69746;PMS7003;57018;50.278;19.134;2023-02-28T07:55:31;38.00;34.00;20.00
69746;PMS7003;57018;50.278;19.134;2023-02-28T07:58:01;30.00;29.00;19.00
69746;PMS7003;57018;50.278;19.134;2023-02-28T08:00:31;29.00;27.00;17.00
69746;PMS7003;57018;50.278;19.134;2023-02-28T08:03:01;31.50;28.50;17.00
69746;PMS7003;57018;50.278;19.134;2023-02-28T08:05:31;25.50;24.00;19.00
69746;PMS7003;57018;50.278;19.134;2023-02-28T08:08:06;27.00;23.00;15.00
69746;PMS7003;57018;50.278;19.134;2023-02-28T08:10:36;30.00;23.00;14.00
69746;PMS7003;57018;50.278;19.134;2023-02-28T08:13:06;25.50;25.00;15.50
69746;PMS7003;57018;50.278;19.134;2023-02-28T08:15:36;27.00;25.00;15.50
69746;PMS7003;57018;50.278;19.134;2023-02-28T08:18:08;26.50;22.50;14.50
69746;PMS7003;57018;50.278;19.134;2023-02-28T08:20:38;33.00;30.00;20.00
69746;PMS7003;57018;50.278;19.134;2023-02-28T08:23:08;39.50;32.50;17.00
69746;PMS7003;57018;50.278;19.134;2023-02-28T08:25:38;29.00;24.50;14.00
69746;PMS7003;57018;50.278;19.134;2023-02-28T08:28:08;30.00;23.00;14.00
69746;PMS7003;57018;50.278;19.134;2023-02-28T08:30:37;26.00;26.00;17.00
69746;PMS7003;57018;50.278;19.134;2023-02-28T08:33:07;24.50;22.00;15.00
69746;PMS7003;57018;50.278;19.134;2023-02-28T08:35:37;27.00;24.00;15.00
69746;PMS7003;57018;50.278;19.134;2023-02-28T08:43:22;21.00;18.00;15.00
69746;PMS7003;57018;50.278;19.134;2023-02-28T08:45:53;24.00;22.00;15.00
69746;PMS7003;57018;50.278;19.134;2023-02-28T08:48:24;29.00;27.00;17.00
69746;PMS7003;57018;50.278;19.134;2023-02-28T08:50:58;26.00;23.00;17.00
69746;PMS7003;57018;50.278;19.134;2023-02-28T08:53:30;26.00;23.00;15.00
69746;PMS7003;57018;50.278;19.134;2023-02-28T08:56:02;32.00;27.50;18.00
69746;PMS7003;57018;50.278;19.134;2023-02-28T08:58:35;23.00;20.00;12.00
69746;PMS7003;57018;50.278;19.134;2023-02-28T09:01:09;22.50;18.50;15.00
69746;PMS7003;57018;50.278;19.134;2023-02-28T09:03:42;16.00;15.00;11.50
69746;PMS7003;57018;50.278;19.134;2023-02-28T09:06:14;22.33;17.00;11.67
69746;PMS7003;57018;50.278;19.134;2023-02-28T09:08:45;29.00;26.00;17.00
69746;PMS7003;57018;50.278;19.134;2023-02-28T09:11:15;15.50;15.00;13.00
69746;PMS7003;57018;50.278;19.134;2023-02-28T09:13:46;33.00;24.00;13.00
69746;PMS7003;57018;50.278;19.134;2023-02-28T09:16:16;28.33;24.00;16.33
69746;PMS7003;57018;50.278;19.134;2023-02-28T09:18:47;23.00;18.00;14.00
69746;PMS7003;57018;50.278;19.134;2023-02-28T09:21:17;25.00;24.00;16.00
69746;PMS7003;57018;50.278;19.134;2023-02-28T09:23:48;28.00;26.00;16.00
69746;PMS7003;57018;50.278;19.134;2023-02-28T09:26:20;32.00;26.00;16.50
69746;PMS7003;57018;50.278;19.134;2023-02-28T09:28:51;24.33;22.67;14.00
69746;PMS7003;57018;50.278;19.134;2023-02-28T09:31:22;28.00;24.00;17.00
69746;PMS7003;57018;50.278;19.134;2023-02-28T09:33:54;27.50;24.50;15.00
69746;PMS7003;57018;50.278;19.134;2023-02-28T09:36:26;25.50;21.50;13.00
69746;PMS7003;57018;50.278;19.134;2023-02-28T09:38:56;25.50;23.50;17.50
69746;PMS7003;57018;50.278;19.134;2023-02-28T09:41:26;22.50;20.00;13.00
69746;PMS7003;57018;50.278;19.134;2023-02-28T09:44:03;27.00;24.00;17.00
69746;PMS7003;57018;50.278;19.134;2023-02-28T09:49:08;30.00;29.00;20.00
69746;PMS7003;57018;50.278;19.134;2023-02-28T09:51:45;30.00;28.00;15.00
69746;PMS7003;57018;50.278;19.134;2023-02-28T09:54:20;30.00;26.00;18.00
69746;PMS7003;57018;50.278;19.134;2023-02-28T09:56:53;29.00;26.00;18.00
69746;PMS7003;57018;50.278;19.134;2023-02-28T10:02:24;33.00;28.00;20.00
69746;PMS7003;57018;50.278;19.134;2023-02-28T10:05:11;33.00;27.00;18.00
69746;PMS7003;57018;50.278;19.134;2023-02-28T10:07:48;31.00;27.00;18.00
69746;PMS7003;57018;50.278;19.134;2023-02-28T10:10:30;33.50;27.00;17.00
69746;PMS7003;57018;50.278;19.134;2023-02-28T10:13:06;36.00;31.00;20.00
69746;PMS7003;57018;50.278;19.134;2023-02-28T10:15:44;42.00;33.00;20.00
69746;PMS7003;57018;50.278;19.134;2023-02-28T10:18:19;37.50;32.50;21.50
69746;PMS7003;57018;50.278;19.134;2023-02-28T10:20:52;21.00;15.00;6.00
69746;PMS7003;57018;50.278;19.134;2023-02-28T10:23:25;27.00;22.50;16.50
69746;PMS7003;57018;50.278;19.134;2023-02-28T10:26:01;36.00;31.50;19.00
69746;PMS7003;57018;50.278;19.134;2023-02-28T10:28:39;34.00;28.50;17.00
69746;PMS7003;57018;50.278;19.134;2023-02-28T10:31:10;34.50;32.00;19.50
69746;PMS7003;57018;50.278;19.134;2023-02-28T10:33:44;27.00;26.00;20.00
69746;PMS7003;57018;50.278;19.134;2023-02-28T10:36:15;38.67;30.00;19.00
69746;PMS7003;57018;50.278;19.134;2023-02-28T10:41:16;32.00;32.00;19.00
69746;PMS7003;57018;50.278;19.134;2023-02-28T10:44:02;29.00;24.00;16.00
69746;PMS7003;57018;50.278;19.134;2023-02-28T10:46:45;26.00;25.00;20.00
69746;PMS7003;57018;50.278;19.134;2023-02-28T10:49:17;31.00;26.00;15.00
69746;PMS7003;57018;50.278;19.134;2023-02-28T10:51:51;34.00;28.00;19.00
69746;PMS7003;57018;50.278;19.134;2023-02-28T10:54:24;35.00;27.00;19.00
69746;PMS7003;57018;50.278;19.134;2023-02-28T10:57:08;31.00;29.00;18.50
69746;PMS7003;57018;50.278;19.134;2023-02-28T10:59:46;39.00;33.50;22.50
69746;PMS7003;57018;50.278;19.134;2023-02-28T11:02:32;28.50;27.00;18.50
69746;PMS7003;57018;50.278;19.134;2023-02-28T11:05:13;27.00;24.00;19.00
69746;PMS7003;57018;50.278;19.134;2023-02-28T11:07:54;30.00;26.00;17.00
69746;PMS7003;57018;50.278;19.134;2023-02-28T11:10:28;33.50;33.50;20.50
69746;PMS7003;57018;50.278;19.134;2023-02-28T11:13:01;29.00;28.00;19.00
69746;PMS7003;57018;50.278;19.134;2023-02-28T11:15:32;30.00;27.50;18.50
69746;PMS7003;57018;50.278;19.134;2023-02-28T11:18:05;34.00;28.00;19.00
69746;PMS7003;57018;50.278;19.134;2023-02-28T11:20:50;38.00;34.00;22.00
69746;PMS7003;57018;50.278;19.134;2023-02-28T11:23:23;27.00;22.00;17.00
69746;PMS7003;57018;50.278;19.134;2023-02-28T11:25:58;30.50;30.00;19.50
69746;PMS7003;57018;50.278;19.134;2023-02-28T11:28:30;26.67;20.67;9.67
69746;PMS7003;57018;50.278;19.134;2023-02-28T11:31:02;34.00;26.00;17.00
69746;PMS7003;57018;50.278;19.134;2023-02-28T11:33:42;32.00;31.50;20.50
69746;PMS7003;57018;50.278;19.134;2023-02-28T11:36:16;33.67;29.67;18.33
69746;PMS7003;57018;50.278;19.134;2023-02-28T11:38:51;33.00;30.00;19.00
69746;PMS7003;57018;50.278;19.134;2023-02-28T11:44:31;34.00;27.00;18.00
69746;PMS7003;57018;50.278;19.134;2023-02-28T11:47:12;35.00;29.00;19.00
69746;PMS7003;57018;50.278;19.134;2023-02-28T11:49:50;34.00;27.00;19.00
69746;PMS7003;57018;50.278;19.134;2023-02-28T21:15:29;173.00;153.00;88.00
69746;PMS7003;57018;50.278;19.134;2023-02-28T21:18:04;154.00;126.00;78.00
69746;PMS7003;57018;50.278;19.134;2023-02-28T21:20:34;154.00;136.00;79.00
69746;PMS7003;57018;50.278;19.134;2023-02-28T21:25:35;162.50;136.50;81.00
69746;PMS7003;57018;50.278;19.134;2023-02-28T21:28:05;168.50;147.50;86.50
69746;PMS7003;57018;50.278;19.134;2023-02-28T21:30:35;145.00;129.50;76.00
69746;PMS7003;57018;50.278;19.134;2023-02-28T21:33:05;153.00;133.00;79.00
69746;PMS7003;57018;50.278;19.134;2023-02-28T21:35:35;146.67;128.33;74.67
69746;PMS7003;57018;50.278;19.134;2023-02-28T21:38:05;171.00;150.00;87.00
69746;PMS7003;57018;50.278;19.134;2023-02-28T21:40:34;158.67;126.33;74.67
69746;PMS7003;57018;50.278;19.134;2023-02-28T21:43:04;158.00;140.50;85.00
69746;PMS7003;57018;50.278;19.134;2023-02-28T21:45:34;150.50;135.50;85.00
69746;PMS7003;57018;50.278;19.134;2023-02-28T21:48:04;149.50;125.00;74.50
69746;PMS7003;57018;50.278;19.134;2023-02-28T21:50:36;157.00;136.00;78.00
69746;PMS7003;57018;50.278;19.134;2023-02-28T21:53:06;157.00;133.00;82.00
69746;PMS7003;57018;50.278;19.134;2023-02-28T21:55:38;148.00;135.00;81.00
69746;PMS7003;57018;50.278;19.134;2023-02-28T21:58:09;143.00;129.50;74.50
69746;PMS7003;57018;50.278;19.134;2023-02-28T22:00:40;134.00;116.67;68.67
69746;PMS7003;57018;50.278;19.134;2023-02-28T22:03:11;138.50;127.00;82.00
69746;PMS7003;57018;50.278;19.134;2023-02-28T22:05:41;147.50;130.00;81.50
69746;PMS7003;57018;50.278;19.134;2023-02-28T22:08:11;141.00;129.00;76.00
69746;PMS7003;57018;50.278;19.134;2023-02-28T22:10:41;122.50;109.50;74.00
69746;PMS7003;57018;50.278;19.134;2023-02-28T22:13:11;145.00;124.00;79.00
69746;PMS7003;57018;50.278;19.134;2023-02-28T22:15:41;139.00;121.00;73.00
69746;PMS7003;57018;50.278;19.134;2023-02-28T22:18:11;143.50;130.50;79.00
69746;PMS7003;57018;50.278;19.134;2023-02-28T22:20:41;164.00;142.50;77.00
69746;PMS7003;57018;50.278;19.134;2023-02-28T22:23:10;153.50;134.50;80.00
69746;PMS7003;57018;50.278;19.134;2023-02-28T22:25:40;146.50;129.25;77.75
69746;PMS7003;57018;50.278;19.134;2023-02-28T22:28:10;131.50;112.00;63.50
69746;PMS7003;57018;50.278;19.134;2023-02-28T22:30:40;157.00;136.00;79.00
69746;PMS7003;57018;50.278;19.134;2023-02-28T22:33:10;157.33;130.00;80.00
69746;PMS7003;57018;50.278;19.134;2023-02-28T22:35:40;146.50;133.00;76.00
69746;PMS7003;57018;50.278;19.134;2023-02-28T22:38:10;159.00;138.00;84.00
69746;PMS7003;57018;50.278;19.134;2023-02-28T22:40:40;170.00;149.00;90.67
69746;PMS7003;57018;50.278;19.134;2023-02-28T22:43:10;162.50;135.50;77.50
69746;PMS7003;57018;50.278;19.134;2023-02-28T22:45:40;148.00;133.00;85.00
69746;PMS7003;57018;50.278;19.134;2023-02-28T22:48:10;146.00;128.50;75.50
69746;PMS7003;57018;50.278;19.134;2023-02-28T22:50:40;145.00;125.00;78.33
69746;PMS7003;57018;50.278;19.134;2023-02-28T22:53:10;165.00;139.00;82.00
69746;PMS7003;57018;50.278;19.134;2023-02-28T22:55:40;172.33;149.67;90.67
69746;PMS7003;57018;50.278;19.134;2023-02-28T22:58:09;179.50;139.00;80.00
69746;PMS7003;57018;50.278;19.134;2023-02-28T23:00:39;150.50;126.50;77.50
69746;PMS7003;57018;50.278;19.134;2023-02-28T23:03:09;132.00;123.00;75.00
69746;PMS7003;57018;50.278;19.134;2023-02-28T23:05:39;131.50;110.50;71.00
69746;PMS7003;57018;50.278;19.134;2023-02-28T23:08:09;121.50;106.00;62.25
69746;PMS7003;57018;50.278;19.134;2023-02-28T23:10:41;130.00;118.00;67.00
69746;PMS7003;57018;50.278;19.134;2023-02-28T23:13:11;133.00;118.00;70.00
69746;PMS7003;57018;50.278;19.134;2023-02-28T23:15:41;126.00;109.00;67.00
69746;PMS7003;57018;50.278;19.134;2023-02-28T23:18:12;143.50;122.50;68.50
69746;PMS7003;57018;50.278;19.134;2023-02-28T23:20:42;113.67;94.67;57.67
69746;PMS7003;57018;50.278;19.134;2023-02-28T23:23:12;131.50;104.50;62.50
69746;PMS7003;57018;50.278;19.134;2023-02-28T23:25:42;122.50;104.50;63.50
69746;PMS7003;57018;50.278;19.134;2023-02-28T23:28:12;114.50;95.50;63.50
69746;PMS7003;57018;50.278;19.134;2023-02-28T23:30:42;123.00;102.50;61.00
69746;PMS7003;57018;50.278;19.134;2023-02-28T23:33:12;118.00;105.00;61.00
69746;PMS7003;57018;50.278;19.134;2023-02-28T23:35:41;129.50;112.00;58.00
69746;PMS7003;57018;50.278;19.134;2023-02-28T23:38:11;120.50;107.00;67.00
69746;PMS7003;57018;50.278;19.134;2023-02-28T23:40:41;129.00;109.00;64.00
69746;PMS7003;57018;50.278;19.134;2023-02-28T23:43:11;126.50;113.50;67.00
69746;PMS7003;57018;50.278;19.134;2023-02-28T23:45:41;137.50;117.50;70.00
69746;PMS7003;57018;50.278;19.134;2023-02-28T23:48:12;123.50;104.50;61.50
69746;PMS7003;57018;50.278;19.134;2023-02-28T23:50:43;124.00;106.00;61.00
69746;PMS7003;57018;50.278;19.134;2023-02-28T23:53:12;133.00;118.00;67.00
69746;PMS7003;57018;50.278;19.134;2023-02-28T23:55:45;143.00;122.50;68.50
69746;PMS7003;57018;50.278;19.134;2023-02-28T23:58:15;145.00;127.00;76.00
